Time;durP1;ratioP1;P1;durP2;ratioP2;P2;SDS_P1;SDS_P2;PMS_P1;PMS_P2;Temp;Humidity;BMP_temperature;BMP_pressure;BME280_temperature;BME280_humidity;BME280_pressure;Samples;Min_cycle;Max_cycle;Signal;HPM_P1;HPM_P2
2021/12/28 00:02:14;;;;;;;20.02;17.02;;;6.30;99.90;;;;;;5127040;27;21020;-68
2021/12/28 00:04:40;;;;;;;25.60;20.48;;;6.40;99.90;;;;;;5140900;27;20113;-68
2021/12/28 00:07:05;;;;;;;27.40;20.63;;;6.40;99.90;;;;;;5113668;27;20049;-69
2021/12/28 00:09:31;;;;;;;30.13;21.20;;;6.40;99.90;;;;;;5131722;27;20371;-68
2021/12/28 00:11:56;;;;;;;28.00;20.02;;;6.30;99.90;;;;;;5117908;27;20051;-69
2021/12/28 00:14:23;;;;;;;30.83;22.10;;;6.40;99.90;;;;;;5118443;27;20046;-68
2021/12/28 00:19:33;;;;;;;32.60;23.70;;;6.40;99.90;;;;;;5130926;27;20436;-68
2021/12/28 00:21:59;;;;;;;31.65;22.20;;;6.40;99.90;;;;;;5115503;27;20047;-68
2021/12/28 00:24:25;;;;;;;30.65;22.05;;;6.30;99.90;;;;;;5150456;27;20038;-68
2021/12/28 00:26:52;;;;;;;27.85;20.08;;;6.30;99.90;;;;;;5124542;27;20084;-68
2021/12/28 00:29:18;;;;;;;34.33;23.63;;;6.40;99.90;;;;;;5141080;27;20074;-68
2021/12/28 00:31:43;;;;;;;30.88;24.30;;;6.40;99.90;;;;;;5130903;27;20109;-68
2021/12/28 00:34:09;;;;;;;34.70;25.38;;;6.40;99.90;;;;;;5126809;27;20096;-68
2021/12/28 00:36:34;;;;;;;32.22;23.80;;;6.40;99.90;;;;;;5135971;27;20068;-68
2021/12/28 00:39:00;;;;;;;33.47;23.23;;;6.50;99.90;;;;;;5128688;27;20051;-68
2021/12/28 00:41:26;;;;;;;31.52;25.30;;;6.50;99.90;;;;;;5122087;27;20108;-68
2021/12/28 00:43:52;;;;;;;36.88;26.02;;;6.50;99.90;;;;;;5137244;27;20771;-69
2021/12/28 00:46:17;;;;;;;39.28;24.40;;;6.50;99.90;;;;;;5126893;27;20043;-68
2021/12/28 00:48:43;;;;;;;40.00;27.73;;;6.50;99.90;;;;;;5121003;27;20077;-68
2021/12/28 00:51:08;;;;;;;37.35;25.80;;;6.50;99.90;;;;;;5140842;27;20045;-68
2021/12/28 00:53:34;;;;;;;46.22;29.40;;;6.50;99.90;;;;;;5110740;27;20035;-68
2021/12/28 00:56:00;;;;;;;37.92;26.42;;;6.60;99.90;;;;;;5128069;27;20092;-68
2021/12/28 00:58:26;;;;;;;44.38;27.55;;;6.60;99.90;;;;;;5141085;27;20054;-68
2021/12/28 01:00:52;;;;;;;38.92;29.75;;;6.60;99.90;;;;;;5118191;27;20039;-68
2021/12/28 01:03:18;;;;;;;40.20;26.10;;;6.60;99.90;;;;;;5139812;27;20031;-68
2021/12/28 01:05:45;;;;;;;46.13;29.15;;;6.60;99.90;;;;;;5118899;27;20067;-68
2021/12/28 01:08:11;;;;;;;47.45;30.65;;;6.70;99.90;;;;;;5140914;27;20066;-68
2021/12/28 01:10:52;;;;;;;39.60;26.98;;;6.70;99.90;;;;;;5129784;27;20479;-68
2021/12/28 01:13:19;;;;;;;45.03;29.45;;;6.70;99.90;;;;;;5110632;27;20058;-68
2021/12/28 01:15:45;;;;;;;43.92;30.10;;;6.80;99.90;;;;;;5130892;27;20046;-68
2021/12/28 01:18:12;;;;;;;48.88;30.20;;;6.80;99.90;;;;;;5105656;27;20473;-68
2021/12/28 01:20:38;;;;;;;54.88;29.60;;;6.80;99.90;;;;;;5109927;28;20092;-68
2021/12/28 01:23:06;;;;;;;45.47;30.20;;;6.80;99.90;;;;;;5116578;27;20051;-68
2021/12/28 01:25:32;;;;;;;60.47;32.25;;;6.80;99.90;;;;;;5108458;27;20047;-68
2021/12/28 01:27:58;;;;;;;54.17;30.50;;;6.80;99.90;;;;;;5132393;27;20107;-68
2021/12/28 01:30:25;;;;;;;60.88;33.47;;;6.90;99.90;;;;;;5129340;27;20467;-68
2021/12/28 01:32:52;;;;;;;77.65;34.05;;;6.90;99.90;;;;;;5111220;27;20058;-68
2021/12/28 01:35:19;;;;;;;52.53;27.75;;;6.90;99.90;;;;;;5136807;27;20051;-68
2021/12/28 01:37:45;;;;;;;57.90;30.50;;;6.90;99.90;;;;;;5136432;27;20043;-69
2021/12/28 01:40:15;;;;;;;63.50;33.00;;;6.90;99.90;;;;;;5136019;27;20494;-68
2021/12/28 01:42:58;;;;;;;93.05;37.60;;;7.00;99.90;;;;;;5136892;27;20074;-68
2021/12/28 01:45:52;;;;;;;57.37;32.50;;;6.90;99.90;;;;;;5113387;27;20084;-68
2021/12/28 01:48:22;;;;;;;69.63;33.83;;;6.90;99.90;;;;;;5106307;27;20055;-68
2021/12/28 01:50:49;;;;;;;74.28;35.00;;;7.00;99.90;;;;;;5122357;27;20047;-68
2021/12/28 01:53:15;;;;;;;58.33;30.63;;;6.90;99.90;;;;;;5139519;27;20575;-68
2021/12/28 01:55:43;;;;;;;44.88;29.25;;;6.90;99.90;;;;;;5129134;27;20043;-68
2021/12/28 01:58:09;;;;;;;59.03;33.90;;;7.00;99.90;;;;;;5125203;27;20133;-68
2021/12/28 02:00:36;;;;;;;67.22;32.05;;;7.00;99.90;;;;;;5137677;27;20110;-68
2021/12/28 02:03:08;;;;;;;48.67;30.77;;;7.00;99.90;;;;;;5110363;27;20043;-68
2021/12/28 02:05:34;;;;;;;70.38;32.72;;;7.00;99.90;;;;;;5136121;27;20394;-68
2021/12/28 02:08:00;;;;;;;89.43;33.33;;;7.00;99.90;;;;;;5114565;27;20043;-68
2021/12/28 02:10:25;;;;;;;63.42;32.72;;;7.00;99.90;;;;;;5111690;27;20059;-68
2021/12/28 02:12:51;;;;;;;67.10;33.83;;;7.10;99.90;;;;;;5115630;27;20035;-69
2021/12/28 02:15:16;;;;;;;73.85;32.22;;;7.10;99.90;;;;;;5128169;27;20043;-68
2021/12/28 02:17:43;;;;;;;58.10;31.70;;;7.10;99.90;;;;;;5112398;27;20047;-68
2021/12/28 02:20:12;;;;;;;61.22;31.08;;;7.00;99.90;;;;;;5113479;27;20110;-68
2021/12/28 02:22:38;;;;;;;73.72;31.95;;;7.10;99.90;;;;;;5106930;28;20050;-68
2021/12/28 02:25:04;;;;;;;57.75;32.35;;;7.10;99.90;;;;;;5103703;27;20046;-68
2021/12/28 02:27:30;;;;;;;42.55;28.92;;;7.10;99.90;;;;;;5131139;27;20085;-68
2021/12/28 02:29:56;;;;;;;74.82;33.83;;;7.10;99.90;;;;;;5110533;28;20101;-68
2021/12/28 02:32:28;;;;;;;43.92;25.98;;;7.10;99.90;;;;;;5122418;27;20055;-68
2021/12/28 02:34:54;;;;;;;85.03;35.10;;;7.10;99.90;;;;;;5129150;27;20043;-68
2021/12/28 02:37:20;;;;;;;71.72;33.05;;;7.10;99.90;;;;;;5129375;28;20131;-68
2021/12/28 02:39:46;;;;;;;53.25;31.95;;;7.10;99.90;;;;;;5113906;27;20468;-68
2021/12/28 02:42:11;;;;;;;46.80;28.63;;;7.10;99.90;;;;;;5139159;27;20046;-68
2021/12/28 02:44:37;;;;;;;64.30;32.13;;;7.10;99.90;;;;;;5126167;28;20071;-68
2021/12/28 02:47:03;;;;;;;40.97;26.60;;;7.10;99.90;;;;;;5102133;28;20047;-68
2021/12/28 02:49:29;;;;;;;55.88;30.63;;;7.10;99.90;;;;;;5092129;28;20044;-68
2021/12/28 02:51:54;;;;;;;63.10;30.95;;;7.10;99.90;;;;;;5136733;27;20054;-68
2021/12/28 02:54:20;;;;;;;53.05;30.27;;;7.10;99.90;;;;;;5128427;28;20441;-68
2021/12/28 02:56:46;;;;;;;76.88;32.30;;;7.20;99.90;;;;;;5127395;28;20081;-68
2021/12/28 02:59:11;;;;;;;56.17;30.63;;;7.10;99.90;;;;;;5117755;27;20042;-68
2021/12/28 03:01:40;;;;;;;52.78;31.95;;;7.20;99.90;;;;;;5133695;27;20154;-68
2021/12/28 03:04:08;;;;;;;76.15;34.38;;;7.20;99.90;;;;;;5115506;27;20055;-68
2021/12/28 03:06:35;;;;;;;62.08;32.13;;;7.20;99.90;;;;;;5124818;27;20050;-68
2021/12/28 03:09:03;;;;;;;53.08;29.17;;;7.20;99.90;;;;;;5141303;27;20070;-68
2021/12/28 03:11:30;;;;;;;69.90;30.63;;;7.20;99.90;;;;;;5114375;28;20858;-68
2021/12/28 03:13:59;;;;;;;67.07;32.42;;;7.30;99.90;;;;;;5098517;28;20443;-68
2021/12/28 03:16:26;;;;;;;70.30;31.67;;;7.30;99.90;;;;;;5136078;27;20098;-68
2021/12/28 03:18:53;;;;;;;59.45;30.08;;;7.30;99.90;;;;;;5113396;28;20163;-68
2021/12/28 03:21:20;;;;;;;71.45;33.20;;;7.30;99.90;;;;;;5123420;28;20055;-68
2021/12/28 03:23:46;;;;;;;54.13;26.90;;;7.30;99.90;;;;;;5108292;28;20493;-68
2021/12/28 03:26:13;;;;;;;66.75;31.55;;;7.30;99.90;;;;;;5122455;27;20129;-68
2021/12/28 03:28:41;;;;;;;69.65;31.38;;;7.30;99.90;;;;;;5131389;27;20041;-68
2021/12/28 03:31:15;;;;;;;87.75;35.47;;;7.30;99.90;;;;;;5126317;27;20043;-68
2021/12/28 03:33:44;;;;;;;69.65;31.48;;;7.30;99.90;;;;;;5129781;27;20051;-68
2021/12/28 03:36:10;;;;;;;64.45;30.73;;;7.30;99.90;;;;;;5122394;27;20047;-68
2021/12/28 03:38:38;;;;;;;72.00;31.45;;;7.30;99.90;;;;;;5125270;27;20081;-68
2021/12/28 03:41:07;;;;;;;71.88;33.42;;;7.30;99.90;;;;;;5131001;27;20043;-69
2021/12/28 03:43:38;;;;;;;54.50;29.17;;;7.40;99.90;;;;;;5110092;27;20128;-68
2021/12/28 03:46:05;;;;;;;59.58;29.90;;;7.40;99.90;;;;;;5118178;27;20039;-68
2021/12/28 03:48:31;;;;;;;55.75;26.38;;;7.40;99.90;;;;;;5137270;27;20085;-68
2021/12/28 03:50:57;;;;;;;59.33;29.10;;;7.40;99.90;;;;;;5102269;28;20051;-68
2021/12/28 03:53:23;;;;;;;73.72;30.05;;;7.40;99.90;;;;;;5092949;28;20052;-68
2021/12/28 03:55:48;;;;;;;50.22;27.48;;;7.40;99.90;;;;;;5122307;27;20053;-68
2021/12/28 03:58:14;;;;;;;65.95;26.65;;;7.50;99.90;;;;;;5137569;27;21008;-68
2021/12/28 04:00:44;;;;;;;58.38;29.58;;;7.50;99.90;;;;;;5114416;27;20565;-68
2021/12/28 04:03:09;;;;;;;51.88;27.45;;;7.50;99.90;;;;;;5108478;27;20481;-68
2021/12/28 04:05:36;;;;;;;58.03;27.65;;;7.50;99.90;;;;;;5131358;27;20039;-68
2021/12/28 04:08:02;;;;;;;51.88;25.33;;;7.50;99.90;;;;;;5130819;27;20213;-68
2021/12/28 04:10:31;;;;;;;61.45;28.52;;;7.50;99.90;;;;;;5136403;27;20045;-68
2021/12/28 04:12:57;;;;;;;59.65;26.35;;;7.50;99.90;;;;;;5112352;27;20051;-68
2021/12/28 04:15:23;;;;;;;75.13;29.50;;;7.50;99.90;;;;;;5126105;27;20122;-68
2021/12/28 04:17:49;;;;;;;60.40;28.52;;;7.40;99.90;;;;;;5128821;27;20169;-68
2021/12/28 04:20:18;;;;;;;60.35;27.45;;;7.50;99.90;;;;;;5131259;27;20043;-68
2021/12/28 04:22:44;;;;;;;58.22;29.45;;;7.50;99.90;;;;;;5136333;27;20135;-68
2021/12/28 04:25:11;;;;;;;80.28;31.15;;;7.50;99.90;;;;;;5141422;27;20515;-68
2021/12/28 04:27:37;;;;;;;59.70;28.13;;;7.50;99.90;;;;;;5141230;27;20374;-68
2021/12/28 04:30:06;;;;;;;67.00;29.30;;;7.50;99.90;;;;;;5130598;27;20054;-69
2021/12/28 04:32:31;;;;;;;64.82;26.90;;;7.50;99.90;;;;;;5116110;27;20059;-68
2021/12/28 04:34:57;;;;;;;66.63;29.80;;;7.50;99.90;;;;;;5128853;27;20457;-68
2021/12/28 04:37:23;;;;;;;72.72;29.77;;;7.50;99.90;;;;;;5135563;27;20047;-68
2021/12/28 04:39:48;;;;;;;68.30;28.08;;;7.50;99.90;;;;;;5109459;27;20121;-68
2021/12/28 04:42:14;;;;;;;70.72;30.60;;;7.50;99.90;;;;;;5106161;27;20042;-68
2021/12/28 04:44:40;;;;;;;67.45;29.83;;;7.60;99.90;;;;;;5142462;27;20126;-68
2021/12/28 04:47:05;;;;;;;71.35;29.73;;;7.50;99.90;;;;;;5130942;27;20162;-68
2021/12/28 04:49:31;;;;;;;69.15;28.58;;;7.50;99.90;;;;;;5148595;27;20378;-68
2021/12/28 04:51:57;;;;;;;54.80;27.13;;;7.50;99.90;;;;;;5130390;27;20075;-68
2021/12/28 04:54:23;;;;;;;76.05;29.45;;;7.50;99.90;;;;;;5108623;27;20146;-68
2021/12/28 04:56:49;;;;;;;59.08;25.73;;;7.60;99.90;;;;;;5114393;27;20043;-68
2021/12/28 04:59:16;;;;;;;45.47;23.83;;;7.60;99.90;;;;;;5103181;28;20048;-68
2021/12/28 05:01:42;;;;;;;47.28;26.85;;;7.60;99.90;;;;;;5111808;27;20039;-68
2021/12/28 05:04:08;;;;;;;56.42;26.48;;;7.60;99.90;;;;;;5130456;27;20051;-68
2021/12/28 05:06:35;;;;;;;64.43;25.20;;;7.60;99.90;;;;;;5127049;27;20060;-68
2021/12/28 05:09:07;;;;;;;55.47;24.63;;;7.60;99.90;;;;;;5108704;28;20043;-68
2021/12/28 05:11:33;;;;;;;53.28;25.38;;;7.60;99.90;;;;;;5129058;27;20082;-68
2021/12/28 05:13:59;;;;;;;52.40;25.48;;;7.60;99.90;;;;;;5101456;28;20039;-68
2021/12/28 05:16:29;;;;;;;42.33;22.70;;;7.60;99.90;;;;;;5125019;27;20043;-68
2021/12/28 05:18:54;;;;;;;65.15;26.27;;;7.60;99.90;;;;;;5140892;27;20054;-68
2021/12/28 05:21:20;;;;;;;52.60;23.48;;;7.60;99.90;;;;;;5113112;27;20115;-68
2021/12/28 05:23:46;;;;;;;51.92;25.50;;;7.60;99.90;;;;;;5109138;27;20051;-68
2021/12/28 05:26:12;;;;;;;50.53;25.40;;;7.60;99.90;;;;;;5122976;27;20058;-68
2021/12/28 05:28:37;;;;;;;42.22;22.02;;;7.50;99.90;;;;;;5139797;27;20043;-68
2021/12/28 05:31:03;;;;;;;41.55;24.20;;;7.50;99.90;;;;;;5110437;27;20070;-68
2021/12/28 05:33:28;;;;;;;49.05;23.80;;;7.50;99.90;;;;;;5146594;27;20058;-68
2021/12/28 05:35:54;;;;;;;47.10;20.75;;;7.50;99.90;;;;;;5110175;27;20055;-68
2021/12/28 05:38:20;;;;;;;36.85;18.27;;;7.60;99.90;;;;;;5113185;27;20075;-68
2021/12/28 05:40:46;;;;;;;47.10;22.75;;;7.60;99.90;;;;;;5136368;27;20502;-68
2021/12/28 05:43:11;;;;;;;40.50;20.90;;;7.60;99.90;;;;;;5116225;27;20068;-68
2021/12/28 05:45:37;;;;;;;36.85;18.42;;;7.60;99.90;;;;;;5145846;27;20042;-68
2021/12/28 05:48:03;;;;;;;51.70;23.00;;;7.60;99.90;;;;;;5133308;27;20066;-68
2021/12/28 05:50:29;;;;;;;40.53;19.63;;;7.60;99.90;;;;;;5110310;27;20050;-68
2021/12/28 05:52:54;;;;;;;42.92;21.10;;;7.60;99.90;;;;;;5133933;27;20398;-68
2021/12/28 05:55:20;;;;;;;42.15;21.77;;;7.60;99.90;;;;;;5150119;27;20548;-68
2021/12/28 05:57:45;;;;;;;47.17;21.55;;;7.60;99.90;;;;;;5113172;27;20047;-68
2021/12/28 06:00:13;;;;;;;41.33;19.67;;;7.60;99.90;;;;;;5130598;27;20054;-68
2021/12/28 06:02:38;;;;;;;43.67;20.00;;;7.60;99.90;;;;;;5142996;27;20067;-68
2021/12/28 06:05:05;;;;;;;40.42;20.30;;;7.60;99.90;;;;;;5129233;27;20415;-68
2021/12/28 06:07:31;;;;;;;43.70;19.42;;;7.60;99.90;;;;;;5128534;27;20556;-68
2021/12/28 06:09:57;;;;;;;35.72;17.73;;;7.60;99.90;;;;;;5121645;27;21017;-68
2021/12/28 06:12:24;;;;;;;42.53;20.15;;;7.60;99.90;;;;;;5111911;27;20130;-68
2021/12/28 06:14:51;;;;;;;37.63;18.75;;;7.60;99.90;;;;;;5108256;27;20043;-68
2021/12/28 06:17:16;;;;;;;30.40;17.65;;;7.60;99.90;;;;;;5124269;27;20057;-68
2021/12/28 06:19:42;;;;;;;36.42;19.58;;;7.60;99.90;;;;;;5140174;27;20130;-69
2021/12/28 06:22:08;;;;;;;32.38;16.83;;;7.60;99.90;;;;;;5135364;27;20134;-68
2021/12/28 06:24:33;;;;;;;34.25;17.65;;;7.60;99.90;;;;;;5128330;27;20031;-68
2021/12/28 06:26:59;;;;;;;41.58;18.80;;;7.60;99.90;;;;;;5128964;28;20039;-69
2021/12/28 06:29:24;;;;;;;44.60;20.25;;;7.60;99.90;;;;;;5129349;28;20043;-68
2021/12/28 06:31:50;;;;;;;35.95;18.75;;;7.60;99.90;;;;;;5134041;27;20062;-68
2021/12/28 06:34:16;;;;;;;33.05;16.65;;;7.50;99.90;;;;;;5131515;27;20078;-68
2021/12/28 06:36:42;;;;;;;32.08;15.63;;;7.50;99.90;;;;;;5136828;27;20041;-68
2021/12/28 06:39:08;;;;;;;31.83;15.40;;;7.50;99.90;;;;;;5139678;27;20035;-68
2021/12/28 06:41:34;;;;;;;32.80;16.70;;;7.50;99.90;;;;;;5110419;28;20051;-68
2021/12/28 06:43:59;;;;;;;44.42;17.13;;;7.50;99.90;;;;;;5120358;28;20043;-68
2021/12/28 06:46:25;;;;;;;44.20;16.23;;;7.50;99.90;;;;;;5122569;27;20073;-68
2021/12/28 06:48:50;;;;;;;44.08;17.58;;;7.50;99.90;;;;;;5131321;27;20039;-68
2021/12/28 06:51:16;;;;;;;30.10;14.25;;;7.50;99.90;;;;;;5130433;27;20078;-68
2021/12/28 06:53:41;;;;;;;31.40;15.65;;;7.60;99.90;;;;;;5119127;28;20475;-68
2021/12/28 06:56:08;;;;;;;34.67;14.98;;;7.60;99.90;;;;;;5128579;28;20039;-68
2021/12/28 06:58:33;;;;;;;32.70;14.65;;;7.60;99.90;;;;;;5102315;28;20092;-68
2021/12/28 07:00:59;;;;;;;38.40;16.65;;;7.60;99.90;;;;;;5111049;28;20398;-68
2021/12/28 07:03:24;;;;;;;31.73;14.82;;;7.60;99.90;;;;;;5120515;28;20044;-68
2021/12/28 07:05:50;;;;;;;30.33;15.32;;;7.70;99.90;;;;;;5121501;27;20078;-68
2021/12/28 07:08:15;;;;;;;29.63;15.15;;;7.70;99.90;;;;;;5140651;27;20054;-68
2021/12/28 07:10:43;;;;;;;32.92;15.93;;;7.70;99.90;;;;;;5133784;27;20518;-68
2021/12/28 07:13:08;;;;;;;32.50;15.25;;;7.70;99.90;;;;;;5127132;27;20058;-69
2021/12/28 07:15:34;;;;;;;30.15;14.80;;;7.70;99.90;;;;;;5130779;27;20039;-68
2021/12/28 07:18:00;;;;;;;30.25;14.05;;;7.80;99.90;;;;;;5135136;27;20130;-68
2021/12/28 07:20:25;;;;;;;30.77;15.68;;;7.80;99.90;;;;;;5121411;27;20084;-68
2021/12/28 07:22:51;;;;;;;37.03;15.18;;;7.80;99.90;;;;;;5131168;27;20076;-68
2021/12/28 07:25:17;;;;;;;34.60;17.08;;;7.80;99.90;;;;;;5129534;27;20122;-69
2021/12/28 07:27:42;;;;;;;31.75;14.07;;;7.70;99.90;;;;;;5121317;27;20254;-69
2021/12/28 07:30:10;;;;;;;45.83;16.60;;;7.70;99.90;;;;;;5114195;27;20057;-69
2021/12/28 07:32:36;;;;;;;31.75;16.52;;;7.70;99.90;;;;;;5151834;27;20063;-70
2021/12/28 07:35:03;;;;;;;29.27;14.57;;;7.70;99.90;;;;;;5132655;27;20051;-69
2021/12/28 07:37:28;;;;;;;28.05;13.55;;;7.80;99.90;;;;;;5129532;27;20051;-69
2021/12/28 07:39:54;;;;;;;34.15;15.32;;;7.70;99.90;;;;;;5129570;27;20058;-70
2021/12/28 07:42:20;;;;;;;37.80;14.20;;;7.70;99.90;;;;;;5131671;27;20058;-70
2021/12/28 07:44:47;;;;;;;25.38;12.57;;;7.70;99.90;;;;;;5129545;27;20051;-70
2021/12/28 07:47:12;;;;;;;29.88;14.57;;;7.80;99.90;;;;;;5127443;27;20045;-69
2021/12/28 07:49:38;;;;;;;37.28;12.65;;;7.80;99.90;;;;;;5126521;27;20035;-69
2021/12/28 07:52:04;;;;;;;33.28;12.82;;;7.80;99.90;;;;;;5136011;27;20159;-69
2021/12/28 07:54:30;;;;;;;36.45;12.88;;;7.70;99.90;;;;;;5130341;27;20131;-69
2021/12/28 07:56:56;;;;;;;26.98;11.88;;;7.70;99.90;;;;;;5092129;28;20096;-69
2021/12/28 07:59:21;;;;;;;20.48;12.32;;;7.80;99.90;;;;;;5111299;28;20047;-69
2021/12/28 08:01:47;;;;;;;33.97;13.00;;;7.80;99.90;;;;;;5103077;27;20047;-70
2021/12/28 08:04:12;;;;;;;26.88;11.05;;;7.80;99.90;;;;;;5123414;27;20481;-69
2021/12/28 08:06:38;;;;;;;30.25;11.95;;;7.80;99.90;;;;;;5124977;27;20039;-69
2021/12/28 08:09:04;;;;;;;25.58;11.05;;;7.80;99.90;;;;;;5131480;27;20043;-69
2021/12/28 08:11:29;;;;;;;31.50;10.88;;;7.80;99.90;;;;;;5106899;27;20579;-69
2021/12/28 08:13:55;;;;;;;26.23;10.98;;;7.80;99.90;;;;;;5108655;27;20043;-69
2021/12/28 08:16:21;;;;;;;18.17;10.25;;;7.80;99.90;;;;;;5111778;27;20535;-69
2021/12/28 08:18:46;;;;;;;26.83;11.35;;;7.80;99.90;;;;;;5131352;27;20066;-69
2021/12/28 08:21:12;;;;;;;22.33;9.80;;;7.80;99.90;;;;;;5134110;27;20111;-69
2021/12/28 08:23:38;;;;;;;34.13;11.05;;;7.80;99.90;;;;;;5113035;27;20062;-70
2021/12/28 08:26:03;;;;;;;26.70;11.27;;;7.90;99.90;;;;;;5134671;27;20043;-70
2021/12/28 08:28:29;;;;;;;27.08;10.85;;;7.90;99.90;;;;;;5131436;27;20103;-70
2021/12/28 08:30:59;;;;;;;21.45;10.70;;;7.90;99.90;;;;;;5117511;27;20036;-69
2021/12/28 08:33:25;;;;;;;22.88;9.70;;;7.90;99.90;;;;;;5120947;27;20090;-70
2021/12/28 08:35:51;;;;;;;19.95;9.88;;;7.90;99.90;;;;;;5115027;27;20864;-69
2021/12/28 08:38:16;;;;;;;23.60;9.75;;;7.90;99.90;;;;;;5116674;27;20046;-70
2021/12/28 08:40:44;;;;;;;18.98;9.27;;;7.90;99.90;;;;;;5110024;28;20044;-69
2021/12/28 08:43:11;;;;;;;31.73;11.77;;;7.90;99.90;;;;;;5091306;27;20389;-70
2021/12/28 08:45:38;;;;;;;23.75;10.88;;;7.90;99.90;;;;;;5115830;27;20659;-70
2021/12/28 08:48:05;;;;;;;30.23;9.90;;;7.90;99.90;;;;;;5108137;28;20852;-68
2021/12/28 08:50:31;;;;;;;28.27;9.98;;;7.90;99.90;;;;;;5112630;27;20130;-68
2021/12/28 08:52:57;;;;;;;26.65;9.65;;;8.00;99.90;;;;;;5105519;27;20131;-67
2021/12/28 08:55:23;;;;;;;24.58;9.07;;;8.00;99.90;;;;;;5116355;27;20051;-68
2021/12/28 08:57:49;;;;;;;23.15;9.23;;;8.00;99.90;;;;;;5105669;27;20052;-67
2021/12/28 09:00:23;;;;;;;25.27;9.57;;;8.10;99.90;;;;;;5108216;28;20065;-68
2021/12/28 09:02:51;;;;;;;22.55;9.00;;;8.10;99.90;;;;;;5101669;28;20036;-70
2021/12/28 09:05:16;;;;;;;24.98;9.45;;;8.10;99.90;;;;;;5103529;28;20555;-70
2021/12/28 09:07:42;;;;;;;15.98;7.40;;;8.10;99.90;;;;;;5108915;27;20130;-70
2021/12/28 09:10:08;;;;;;;27.60;8.93;;;8.10;99.90;;;;;;5110284;27;20063;-70
2021/12/28 09:12:34;;;;;;;26.10;9.82;;;8.10;99.90;;;;;;5106991;28;20466;-70
2021/12/28 09:14:59;;;;;;;20.27;8.15;;;8.10;99.90;;;;;;5122606;27;20050;-70
2021/12/28 09:17:25;;;;;;;17.92;7.40;;;8.10;99.90;;;;;;5117722;27;20032;-70
2021/12/28 09:19:50;;;;;;;23.60;8.77;;;8.20;99.90;;;;;;5112005;27;20106;-70
2021/12/28 09:22:16;;;;;;;23.58;10.27;;;8.20;99.90;;;;;;5108508;28;20100;-70
2021/12/28 09:24:42;;;;;;;20.27;8.18;;;8.20;99.90;;;;;;5109790;28;20138;-70
2021/12/28 09:27:07;;;;;;;26.13;8.27;;;8.30;99.90;;;;;;5115718;27;20050;-70
2021/12/28 09:29:33;;;;;;;25.25;9.98;;;8.30;99.90;;;;;;5109262;28;20092;-70
2021/12/28 09:32:00;;;;;;;19.00;8.05;;;8.30;99.90;;;;;;5111895;27;20494;-70
2021/12/28 09:34:27;;;;;;;26.58;9.38;;;8.30;99.90;;;;;;5137576;27;20070;-70
2021/12/28 09:36:53;;;;;;;21.65;7.57;;;8.30;99.90;;;;;;5132270;27;20107;-70
2021/12/28 09:39:22;;;;;;;27.17;8.65;;;8.30;99.90;;;;;;5111629;27;20047;-70
2021/12/28 09:41:54;;;;;;;23.77;9.55;;;8.30;99.90;;;;;;5138059;27;20047;-70
2021/12/28 09:44:20;;;;;;;21.95;9.07;;;8.30;99.90;;;;;;5130239;27;20031;-70
2021/12/28 09:46:46;;;;;;;25.98;10.00;;;8.20;99.90;;;;;;5130009;27;20531;-70
2021/12/28 09:49:12;;;;;;;26.10;10.15;;;8.30;99.90;;;;;;5142479;27;20074;-70
2021/12/28 09:51:37;;;;;;;24.95;9.77;;;8.30;99.90;;;;;;5127980;27;20114;-70
2021/12/28 09:54:03;;;;;;;28.85;11.35;;;8.30;99.90;;;;;;5127777;27;20800;-70
2021/12/28 09:56:29;;;;;;;25.52;10.10;;;8.30;99.90;;;;;;5133555;27;20042;-69
2021/12/28 09:58:55;;;;;;;24.42;9.75;;;8.30;99.90;;;;;;5125948;27;20500;-70
2021/12/28 10:01:20;;;;;;;20.25;8.27;;;8.30;99.90;;;;;;5131470;27;20064;-69
2021/12/28 10:03:47;;;;;;;28.98;10.23;;;8.30;99.90;;;;;;5126017;27;20055;-70
2021/12/28 10:06:22;;;;;;;24.70;9.68;;;8.30;99.90;;;;;;5119211;27;20122;-69
2021/12/28 10:09:04;;;;;;;33.65;12.45;;;8.30;99.90;;;;;;5118552;27;20051;-69
2021/12/28 10:12:03;;;;;;;23.77;9.63;;;8.30;99.90;;;;;;5106064;27;20403;-70
2021/12/28 10:14:29;;;;;;;26.27;11.23;;;8.30;99.90;;;;;;5097714;27;20552;-70
2021/12/28 10:16:56;;;;;;;23.73;11.07;;;8.30;99.90;;;;;;5145167;27;20066;-70
2021/12/28 10:19:48;;;;;;;20.83;9.85;;;8.30;99.90;;;;;;5129024;27;20393;-70
2021/12/28 10:22:28;;;;;;;23.23;11.75;;;8.30;99.90;;;;;;5116974;27;20134;-70
2021/12/28 10:24:58;;;;;;;19.48;8.95;;;8.40;99.90;;;;;;5123568;28;20062;-70
2021/12/28 10:27:26;;;;;;;25.10;11.25;;;8.40;99.90;;;;;;5129455;27;20043;-70
2021/12/28 10:29:53;;;;;;;22.00;10.32;;;8.40;99.90;;;;;;5101210;27;20199;-70
2021/12/28 10:32:25;;;;;;;21.30;10.55;;;8.40;99.90;;;;;;5129111;27;20433;-70
2021/12/28 10:34:55;;;;;;;29.65;11.57;;;8.40;99.90;;;;;;5125089;28;20059;-70
2021/12/28 10:37:24;;;;;;;18.20;10.20;;;8.40;99.90;;;;;;5132658;27;20042;-70
2021/12/28 10:39:54;;;;;;;23.65;11.23;;;8.40;99.90;;;;;;5124631;27;20704;-70
2021/12/28 10:43:13;;;;;;;26.73;12.35;;;8.40;99.90;;;;;;5119202;28;20095;-70
2021/12/28 10:45:43;;;;;;;20.15;10.02;;;8.50;99.90;;;;;;5034448;28;20150;-70
2021/12/28 10:48:23;;;;;;;16.65;10.48;;;8.50;99.90;;;;;;5091868;27;20486;-69
2021/12/28 10:51:00;;;;;;;17.50;11.25;;;8.50;99.90;;;;;;5128438;27;20512;-69
2021/12/28 10:53:39;;;;;;;15.55;10.15;;;8.50;99.90;;;;;;5123402;27;20047;-69
2021/12/28 10:56:07;;;;;;;16.17;10.15;;;8.50;99.90;;;;;;5104223;28;20610;-69
2021/12/28 10:58:45;;;;;;;19.50;10.48;;;8.50;99.90;;;;;;5111343;28;20051;-69
2021/12/28 11:01:18;;;;;;;13.40;9.02;;;8.50;99.90;;;;;;5106495;27;20043;-67
2021/12/28 11:03:46;;;;;;;17.52;10.60;;;8.50;99.90;;;;;;5128459;27;20047;-67
2021/12/28 11:06:23;;;;;;;13.90;8.13;;;8.60;99.90;;;;;;5124529;27;20142;-67
2021/12/28 11:09:13;;;;;;;15.82;9.45;;;8.60;99.90;;;;;;5130004;27;20055;-66
2021/12/28 11:11:40;;;;;;;15.10;9.43;;;8.60;99.90;;;;;;5100410;27;20051;-67
2021/12/28 11:14:13;;;;;;;17.30;9.40;;;8.70;99.90;;;;;;5120491;27;20047;-67
2021/12/28 11:16:39;;;;;;;10.43;7.18;;;8.70;99.90;;;;;;5114211;27;20054;-66
2021/12/28 11:19:08;;;;;;;11.88;8.65;;;8.70;99.90;;;;;;5131663;27;20126;-67
2021/12/28 11:21:37;;;;;;;14.10;7.60;;;8.70;99.90;;;;;;5140276;27;20081;-68
2021/12/28 11:24:04;;;;;;;11.35;6.85;;;8.80;99.90;;;;;;5133014;27;20546;-67
2021/12/28 11:26:38;;;;;;;14.10;8.27;;;8.80;99.90;;;;;;5139210;27;20057;-68
2021/12/28 11:29:15;;;;;;;8.50;7.45;;;8.80;99.90;;;;;;5118441;27;20074;-68
2021/12/28 11:31:46;;;;;;;10.20;6.63;;;8.70;99.90;;;;;;5139262;27;21380;-68
2021/12/28 11:34:18;;;;;;;12.48;6.75;;;8.80;99.90;;;;;;5130923;27;20039;-68
2021/12/28 11:36:57;;;;;;;8.30;6.60;;;8.80;99.90;;;;;;5124535;27;20077;-68
2021/12/28 11:39:27;;;;;;;9.00;5.53;;;8.90;99.90;;;;;;5114483;27;20066;-68
2021/12/28 11:41:53;;;;;;;10.30;5.43;;;8.80;99.90;;;;;;5108458;27;20065;-67
2021/12/28 11:44:22;;;;;;;9.23;6.15;;;8.80;99.90;;;;;;5144389;27;20039;-68
2021/12/28 11:46:49;;;;;;;9.00;5.78;;;8.80;99.90;;;;;;5120554;27;20083;-69
2021/12/28 11:49:16;;;;;;;6.28;5.32;;;8.90;99.90;;;;;;5108989;27;20058;-68
2021/12/28 11:51:44;;;;;;;9.63;5.10;;;8.90;99.90;;;;;;5128492;27;20043;-68
2021/12/28 11:54:13;;;;;;;6.45;5.03;;;8.90;99.90;;;;;;5123263;27;20050;-68
2021/12/28 11:56:42;;;;;;;9.75;5.63;;;8.90;99.90;;;;;;5116296;27;20520;-68
2021/12/28 11:59:16;;;;;;;4.43;3.85;;;8.90;99.90;;;;;;5122207;27;20051;-68
2021/12/28 12:01:44;;;;;;;7.18;4.95;;;8.90;99.90;;;;;;5115223;27;20489;-68
2021/12/28 12:04:31;;;;;;;6.95;5.57;;;9.00;99.90;;;;;;5131922;27;20035;-68
2021/12/28 12:07:12;;;;;;;7.05;4.60;;;9.00;99.90;;;;;;5110639;27;20397;-68
2021/12/28 12:09:50;;;;;;;8.75;4.90;;;8.90;99.90;;;;;;5112470;27;20100;-68
2021/12/28 12:12:20;;;;;;;7.15;5.07;;;9.00;99.90;;;;;;5140844;27;20448;-68
2021/12/28 12:14:58;;;;;;;6.45;4.93;;;9.00;99.90;;;;;;5131265;27;20047;-68
2021/12/28 12:17:39;;;;;;;6.72;4.80;;;9.00;99.90;;;;;;5134855;27;20051;-68
2021/12/28 12:20:04;;;;;;;6.63;4.40;;;9.00;99.90;;;;;;5118850;27;20096;-68
2021/12/28 12:22:30;;;;;;;7.72;6.43;;;9.00;99.90;;;;;;5121087;27;20034;-68
2021/12/28 12:25:00;;;;;;;5.13;4.38;;;9.00;99.90;;;;;;5126786;27;20051;-68
2021/12/28 12:27:53;;;;;;;11.73;5.47;;;9.10;99.90;;;;;;5138665;27;20057;-68
2021/12/28 12:30:23;;;;;;;6.10;5.22;;;9.10;99.90;;;;;;5115420;27;20525;-68
2021/12/28 12:33:05;;;;;;;6.82;5.60;;;9.10;99.90;;;;;;5126527;27;20129;-68
2021/12/28 12:35:46;;;;;;;6.28;4.78;;;9.10;99.90;;;;;;5103763;27;20478;-68
2021/12/28 12:38:14;;;;;;;9.18;5.88;;;9.10;99.90;;;;;;5106966;27;20042;-68
2021/12/28 12:41:00;;;;;;;7.63;5.68;;;9.10;99.90;;;;;;5120596;27;20058;-68
2021/12/28 12:43:39;;;;;;;7.80;5.20;;;9.10;99.90;;;;;;5126349;27;20051;-67
2021/12/28 12:46:16;;;;;;;7.00;5.25;;;9.10;99.90;;;;;;5125398;27;20506;-68
2021/12/28 12:48:41;;;;;;;9.52;5.82;;;9.10;99.90;;;;;;5131066;27;20082;-68